• Join FlightAware (Why Join?)
  • Login
  • US Flag 
11:11AM EST


 

Airport Tracker/Info


-or-


 

Live Flight TrackerFlight Track Log ✈ CSN6818 ✈ 12-Feb-2014 ✈ ZWTN / HTN - ZWWW / URC

Flight Track Log - Related Links

Times and Time Zones

All times are in EST time to prevent confusion due to time zone crossing. See the CSN6818 flight status page for this flight to view local times or setup timezone preferences in your user account.

Time Position Orientation Groundspeed Altitude Reporting Facility
EST Latitude Longitude Course Direction KTS MPH feet Rate Location/Type
07:46AM 37.8769 80.6887 38° Northeast  Level Estimated
07:47AM 37.9697 80.7814 38° Northeast  Level Estimated
07:48AM 38.0624 80.8743 38° Northeast  Level Estimated
07:49AM 38.1550 80.9675 38° Northeast  Level Estimated
07:50AM 38.2476 81.0609 38° Northeast  Level Estimated
07:51AM 38.3401 81.1545 38° Northeast  Level Estimated
07:52AM 38.4325 81.2484 38° Northeast  Level Estimated
07:53AM 38.5249 81.3425 39° Northeast  Level Estimated
07:54AM 38.6171 81.4368 39° Northeast  Level Estimated
07:55AM 38.7093 81.5314 39° Northeast  Level Estimated
07:56AM 38.8015 81.6263 39° Northeast  Level Estimated
07:57AM 38.8935 81.7213 39° Northeast  Level Estimated
07:58AM 38.9855 81.8167 39° Northeast  Level Estimated
07:59AM 39.0774 81.9122 39° Northeast  Level Estimated
08:00AM 39.1692 82.0081 39° Northeast  Level Estimated
08:01AM 39.2609 82.1041 39° Northeast  Level Estimated
08:02AM 39.3526 82.2005 39° Northeast  Level Estimated
08:03AM 39.4441 82.2971 39° Northeast  Level Estimated
08:04AM 39.5356 82.3939 39° Northeast  Level Estimated
08:05AM 39.6270 82.4910 39° Northeast  Level Estimated
08:06AM 39.7183 82.5883 39° Northeast  Level Estimated
08:07AM 39.8096 82.6859 39° Northeast  Level Estimated
08:08AM 39.9008 82.7838 39° Northeast  Level Estimated
08:09AM 39.9919 82.8819 40° Northeast  Level Estimated
08:10AM 40.0829 82.9803 40° Northeast  Level Estimated
08:11AM 40.1738 83.0789 40° Northeast  Level Estimated
08:12AM 40.2646 83.1779 40° Northeast  Level Estimated
08:13AM 40.3554 83.2770 40° Northeast  Level Estimated
08:14AM 40.4460 83.3765 40° Northeast  Level Estimated
08:15AM 40.5366 83.4762 40° Northeast  Level Estimated
08:16AM 40.6271 83.5762 40° Northeast  Level Estimated
08:17AM 40.7175 83.6765 40° Northeast  Level Estimated
08:18AM 40.8078 83.7770 40° Northeast  Level Estimated
08:19AM 40.8981 83.8778 40° Northeast  Level Estimated
08:20AM 40.9882 83.9789 40° Northeast  Level Estimated
08:21AM 41.0783 84.0802 40° Northeast  Level Estimated
08:22AM 41.1683 84.1819 40° Northeast  Level Estimated
08:23AM 41.2581 84.2838 40° Northeast  Level Estimated
08:24AM 41.3479 84.3860 40° Northeast  Level Estimated
08:25AM 41.4376 84.4884 41° Northeast  Level Estimated
08:26AM 41.5272 84.5912 41° Northeast  Level Estimated
08:27AM 41.6167 84.6942 41° Northeast  Level Estimated
08:28AM 41.7062 84.7976 41° Northeast  Level Estimated
08:29AM 41.7955 84.9012 41° Northeast  Level Estimated
08:30AM 41.8847 85.0051 41° Northeast  Level Estimated
08:31AM 41.9739 85.1093 41° Northeast  Level Estimated
08:32AM 42.0629 85.2138 41° Northeast  Level Estimated
08:33AM 42.1519 85.3186 41° Northeast  Level Estimated
08:34AM 42.2407 85.4237 41° Northeast  Level Estimated
08:35AM 42.3295 85.5290 41° Northeast  Level Estimated
08:36AM 42.4182 85.6347 41° Northeast  Level Estimated
08:37AM 42.5067 85.7407 41° Northeast  Level Estimated
08:38AM 42.5952 85.8469 41° Northeast  Level Estimated
08:39AM 42.6836 85.9535 42° Northeast  Level Estimated
08:40AM 42.7718 86.0604 42° Northeast  Level Estimated
08:41AM 42.8600 86.1676 42° Northeast  Level Estimated
08:42AM 42.9481 86.2750 42° Northeast  Level Estimated
08:43AM 43.0360 86.3829 42° Northeast  Level Estimated
08:44AM 43.1239 86.4910 42° Northeast  Level Estimated
08:45AM 43.2117 86.5994 42° Northeast  Level Estimated
08:46AM 43.2994 86.7081 42° Northeast  Level Estimated
08:47AM 43.3869 86.8171 42° Northeast  Level Estimated
08:48AM 43.4744 86.9265 42° Northeast  Level Estimated
08:49AM 43.5617 87.0362 42° Northeast  Level Estimated
08:50AM 43.6490 87.1462 42° Northeast  Level Estimated
08:51AM 43.7361 87.2565 42° Northeast  Level Estimated
08:52AM 43.8232 87.3671 43° Northeast  Level Estimated
08:53AM 43.9071 87.4742 43° Northeast  Level Estimated
08:54AM 43.9071 87.4742 144° Southeast  Level Estimated
08:55AM 43.9071 87.4742 144° Southeast  Level Estimated
08:56AM 43.9071 87.4742 144° Southeast  Level Estimated
08:57AM 43.9071 87.4742 144° Southeast  Level Estimated
08:58AM 43.9071 87.4742 144° Southeast  Level Estimated
08:59AM 43.9071 87.4742 144° Southeast  Level Estimated
09:00AM 43.9071 87.4742 144° Southeast  Level Estimated
09:01AM 43.9071 87.4742 144° Southeast  Level Estimated
09:02AM 43.9071 87.4742 144° Southeast  Level Estimated
09:03AM 43.9071 87.4742 144° Southeast  Level Estimated
09:04AM 43.9071 87.4742 144° Southeast  Level Estimated
09:05AM 43.9071 87.4742 144° Southeast  Level Estimated
09:06AM 43.9071 87.4742 144° Southeast  Level Estimated
09:07AM 43.9071 87.4742 144° Southeast  Level Estimated
09:08AM 43.9071 87.4742 144° Southeast  Level Estimated
09:09AM 43.9071 87.4742 144° Southeast  Level Estimated